createdAt,value
2022-08-04T00:02:08.287Z,20.80
2022-08-04T00:04:52.092Z,20.80
2022-08-04T00:07:55.880Z,20.80
2022-08-04T00:10:27.061Z,20.80
2022-08-04T00:12:58.343Z,20.80
2022-08-04T00:15:28.887Z,20.76
2022-08-04T00:18:09.342Z,20.70
2022-08-04T00:20:43.048Z,20.72
2022-08-04T00:23:11.541Z,20.70
2022-08-04T00:25:41.516Z,20.70
2022-08-04T00:28:09.395Z,20.68
2022-08-04T00:30:38.051Z,20.60
2022-08-04T00:33:07.357Z,20.60
2022-08-04T00:35:38.419Z,20.60
2022-08-04T00:38:06.533Z,20.60
2022-08-04T00:41:08.957Z,20.54
2022-08-04T00:44:23.714Z,20.60
2022-08-04T00:47:08.056Z,20.56
2022-08-04T00:50:03.585Z,20.50
2022-08-04T00:52:43.060Z,20.50
2022-08-04T00:55:27.903Z,20.40
2022-08-04T00:58:27.811Z,20.40
2022-08-04T01:01:06.755Z,20.30
2022-08-04T01:04:02.571Z,20.30
2022-08-04T01:06:56.425Z,20.30
2022-08-04T01:09:48.769Z,20.30
2022-08-04T01:12:34.384Z,20.30
2022-08-04T01:15:57.117Z,20.20
2022-08-04T01:18:42.561Z,20.20
2022-08-04T01:21:30.685Z,20.22
2022-08-04T01:24:56.761Z,20.20
2022-08-04T01:27:55.041Z,20.22
2022-08-04T01:30:27.657Z,20.24
2022-08-04T01:33:05.185Z,20.20
2022-08-04T01:35:50.999Z,20.20
2022-08-04T01:38:37.026Z,20.20
2022-08-04T01:41:12.709Z,20.20
2022-08-04T01:43:46.370Z,20.28
2022-08-04T01:46:17.617Z,20.24
2022-08-04T01:48:47.935Z,20.20
2022-08-04T01:51:15.525Z,20.20
2022-08-04T01:53:44.909Z,20.10
2022-08-04T01:56:13.246Z,20.10
2022-08-04T01:58:41.824Z,20.04
2022-08-04T02:01:13.739Z,20.00
2022-08-04T02:04:20.114Z,20.00
2022-08-04T02:07:22.354Z,19.98
2022-08-04T02:10:28.820Z,19.90
2022-08-04T02:13:10.928Z,19.82
2022-08-04T02:15:56.870Z,19.80
2022-08-04T02:18:47.472Z,19.80
2022-08-04T02:21:20.351Z,19.70
2022-08-04T02:24:06.821Z,19.70
2022-08-04T02:26:37.032Z,19.60
2022-08-04T02:29:20.380Z,19.60
2022-08-04T02:32:03.933Z,19.50
2022-08-04T02:34:59.339Z,19.50
2022-08-04T02:37:31.452Z,19.50
2022-08-04T02:40:06.305Z,19.40
2022-08-04T02:42:35.530Z,19.40
2022-08-04T02:45:06.742Z,19.38
2022-08-04T02:48:30.522Z,19.30
2022-08-04T02:50:29.163Z,19.30
2022-08-04T02:53:02.985Z,19.22
2022-08-04T02:55:32.960Z,19.20
2022-08-04T02:58:04.697Z,19.20
2022-08-04T03:00:33.057Z,19.20
2022-08-04T03:03:31.344Z,19.20
2022-08-04T03:06:12.051Z,19.20
2022-08-04T03:09:25.328Z,19.10
2022-08-04T03:12:17.176Z,19.10
2022-08-04T03:15:06.470Z,19.10
2022-08-04T03:18:18.653Z,19.00
2022-08-04T03:21:22.806Z,19.00
2022-08-04T03:24:09.049Z,19.00
2022-08-04T03:27:14.744Z,18.90
2022-08-04T03:30:07.142Z,18.90
2022-08-04T03:33:14.789Z,18.80
2022-08-04T03:36:48.583Z,18.80
2022-08-04T03:39:44.028Z,18.80
2022-08-04T03:42:20.513Z,18.80
2022-08-04T03:45:55.896Z,18.80
2022-08-04T03:48:53.248Z,18.80
2022-08-04T03:52:20.919Z,18.80
2022-08-04T03:55:26.292Z,18.80
2022-08-04T03:58:08.904Z,18.82
2022-08-04T04:00:51.533Z,18.90
2022-08-04T04:04:26.232Z,18.90
2022-08-04T04:07:55.889Z,19.00
2022-08-04T04:10:47.471Z,19.00
2022-08-04T04:14:06.156Z,19.00
2022-08-04T04:17:29.965Z,19.10
2022-08-04T04:20:38.833Z,19.10
2022-08-04T04:23:54.966Z,19.20
2022-08-04T04:26:54.774Z,19.20
2022-08-04T04:29:55.112Z,19.20
2022-08-04T04:32:53.676Z,19.20
2022-08-04T04:35:40.856Z,19.30
2022-08-04T04:38:49.121Z,19.30
2022-08-04T04:41:42.557Z,19.40
2022-08-04T04:44:30.736Z,19.50
2022-08-04T04:48:08.329Z,19.50
2022-08-04T04:50:52.996Z,19.60
2022-08-04T04:54:06.566Z,19.70
2022-08-04T04:56:45.562Z,19.80
2022-08-04T04:59:23.488Z,19.90
2022-08-04T05:02:03.049Z,20.00
2022-08-04T05:05:04.221Z,20.10
2022-08-04T05:08:44.251Z,20.20
2022-08-04T05:11:52.310Z,20.30
2022-08-04T05:14:41.792Z,20.44
2022-08-04T05:17:22.452Z,20.60
2022-08-04T05:20:15.021Z,20.60
2022-08-04T05:22:55.035Z,20.70
2022-08-04T05:25:35.695Z,20.80
2022-08-04T05:28:12.789Z,20.90
2022-08-04T05:30:49.094Z,21.00
2022-08-04T05:33:32.719Z,21.04
2022-08-04T05:36:18.808Z,21.12
2022-08-04T05:38:57.285Z,21.30
2022-08-04T05:41:44.704Z,21.40
2022-08-04T05:44:17.908Z,21.50
2022-08-04T05:46:55.137Z,21.60
2022-08-04T05:49:29.035Z,21.80
2022-08-04T05:52:02.457Z,21.90
2022-08-04T05:54:35.864Z,22.00
2022-08-04T05:57:06.101Z,22.10
2022-08-04T05:59:37.986Z,22.24
2022-08-04T06:02:08.352Z,22.40
2022-08-04T06:04:41.246Z,22.50
2022-08-04T06:07:11.281Z,22.60
2022-08-04T06:09:39.312Z,22.70
2022-08-04T06:12:14.063Z,22.82
2022-08-04T06:14:48.750Z,23.00
2022-08-04T06:18:35.647Z,23.10
2022-08-04T06:20:23.210Z,23.20
2022-08-04T06:22:58.700Z,23.30
2022-08-04T06:25:33.123Z,23.40
2022-08-04T06:28:05.312Z,23.60
2022-08-04T06:30:35.608Z,23.70
2022-08-04T06:33:13.891Z,23.80
2022-08-04T06:35:42.588Z,23.80
2022-08-04T06:38:11.525Z,23.90
2022-08-04T06:40:41.598Z,24.00
2022-08-04T06:43:10.233Z,24.10
2022-08-04T06:45:41.379Z,24.20
2022-08-04T06:48:13.262Z,24.26
2022-08-04T06:51:29.250Z,24.30
2022-08-04T06:53:34.985Z,24.40
2022-08-04T06:56:04.194Z,24.50
2022-08-04T06:58:33.636Z,24.60
2022-08-04T07:01:03.158Z,24.70
2022-08-04T07:03:32.645Z,24.80
2022-08-04T07:06:05.577Z,24.82
2022-08-04T07:08:36.270Z,24.90
2022-08-04T07:11:05.806Z,25.00
2022-08-04T07:13:33.864Z,25.10
2022-08-04T07:16:02.551Z,25.20
2022-08-04T07:18:32.122Z,25.28
2022-08-04T07:21:00.524Z,25.30
2022-08-04T07:23:28.405Z,25.40
2022-08-04T07:26:11.175Z,25.50
2022-08-04T07:28:41.882Z,25.60
2022-08-04T07:31:32.036Z,25.70
2022-08-04T07:34:11.604Z,25.80
2022-08-04T07:36:50.208Z,25.90
2022-08-04T07:39:27.210Z,26.00
2022-08-04T07:42:01.767Z,26.00
2022-08-04T07:44:34.906Z,26.10
2022-08-04T07:47:07.209Z,26.10
2022-08-04T07:49:52.230Z,26.20
2022-08-04T07:52:24.989Z,26.20
2022-08-04T07:54:54.028Z,26.30
2022-08-04T07:57:40.983Z,26.34
2022-08-04T08:00:16.679Z,26.40
2022-08-04T08:02:49.589Z,26.50
2022-08-04T08:05:20.519Z,26.50
2022-08-04T08:07:54.460Z,26.50
2022-08-04T08:10:24.688Z,26.60
2022-08-04T08:12:53.773Z,26.60
2022-08-04T08:15:22.597Z,26.62
2022-08-04T08:17:57.789Z,26.70
2022-08-04T08:20:30.553Z,26.70
2022-08-04T08:23:01.206Z,26.80
2022-08-04T08:25:32.462Z,26.80
2022-08-04T08:28:03.559Z,26.90
2022-08-04T08:30:33.991Z,26.90
2022-08-04T08:33:06.387Z,27.00
2022-08-04T08:36:18.458Z,27.00
2022-08-04T08:39:34.945Z,27.10
2022-08-04T08:42:30.008Z,27.10
2022-08-04T08:45:25.584Z,27.20
2022-08-04T08:48:30.558Z,27.20
2022-08-04T08:51:28.585Z,27.20
2022-08-04T08:54:30.176Z,27.30
2022-08-04T08:57:31.806Z,27.30
2022-08-04T09:00:38.165Z,27.32
2022-08-04T09:03:36.855Z,27.40
2022-08-04T09:06:37.478Z,27.40
2022-08-04T09:09:32.652Z,27.40
2022-08-04T09:12:25.634Z,27.40
2022-08-04T09:14:56.302Z,27.50
2022-08-04T09:17:41.044Z,27.50
2022-08-04T09:21:12.774Z,27.50
2022-08-04T09:24:00.394Z,27.60
2022-08-04T09:26:40.864Z,27.60
2022-08-04T09:29:33.891Z,27.60
2022-08-04T09:32:32.913Z,27.70
2022-08-04T09:35:15.158Z,27.70
2022-08-04T09:37:59.376Z,27.70
2022-08-04T09:40:59.116Z,27.78
2022-08-04T09:44:49.310Z,27.80
2022-08-04T09:47:39.178Z,27.90
2022-08-04T09:50:19.733Z,27.90
2022-08-04T09:53:29.794Z,27.96
2022-08-04T09:56:39.561Z,28.00
2022-08-04T09:59:22.170Z,28.00
2022-08-04T10:02:00.024Z,28.00
2022-08-04T10:04:31.836Z,28.00
2022-08-04T10:07:39.084Z,28.00
2022-08-04T10:10:28.761Z,28.00
2022-08-04T10:13:21.692Z,28.00
2022-08-04T10:16:24.794Z,28.10
2022-08-04T10:19:20.721Z,28.10
2022-08-04T10:22:29.962Z,28.10
2022-08-04T10:26:03.068Z,28.10
2022-08-04T10:28:21.567Z,28.10
2022-08-04T10:31:03.222Z,28.10
2022-08-04T10:33:57.549Z,28.10
2022-08-04T10:36:38.235Z,28.10
2022-08-04T10:39:43.322Z,28.10
2022-08-04T10:42:20.888Z,28.20
2022-08-04T10:45:49.047Z,28.20
2022-08-04T10:48:56.358Z,28.20
2022-08-04T10:51:57.698Z,28.20
2022-08-04T10:54:47.485Z,28.20
2022-08-04T10:57:34.077Z,28.20
2022-08-04T11:00:10.510Z,28.30
2022-08-04T11:02:54.598Z,28.32
2022-08-04T11:05:46.548Z,28.30
2022-08-04T11:08:44.560Z,28.30
2022-08-04T11:11:19.922Z,28.30
2022-08-04T11:14:03.525Z,28.30
2022-08-04T11:16:54.911Z,28.30
2022-08-04T11:19:54.631Z,28.30
2022-08-04T11:22:29.286Z,28.40
2022-08-04T11:25:09.625Z,28.40
2022-08-04T11:28:19.339Z,28.40
2022-08-04T11:31:11.751Z,28.40
2022-08-04T11:34:01.220Z,28.50
2022-08-04T11:36:50.960Z,28.50
2022-08-04T11:39:30.156Z,28.50
2022-08-04T11:42:14.707Z,28.60
2022-08-04T11:45:08.079Z,28.60
2022-08-04T11:47:41.676Z,28.60
2022-08-04T11:50:28.876Z,28.60
2022-08-04T11:52:59.585Z,28.60
2022-08-04T11:55:30.402Z,28.60
2022-08-04T11:57:58.989Z,28.60
2022-08-04T12:00:31.204Z,28.70
2022-08-04T12:03:25.387Z,28.70
2022-08-04T12:06:13.477Z,28.70
2022-08-04T12:09:13.002Z,28.70
2022-08-04T12:11:56.423Z,28.80
2022-08-04T12:14:51.570Z,28.80
2022-08-04T12:17:52.733Z,28.80
2022-08-04T12:20:38.256Z,28.86
2022-08-04T12:23:29.797Z,28.90
2022-08-04T12:26:05.333Z,28.90
2022-08-04T12:29:08.612Z,28.90
2022-08-04T12:31:47.305Z,28.98
2022-08-04T12:34:32.598Z,28.94
2022-08-04T12:37:20.565Z,28.90
2022-08-04T12:40:21.667Z,28.90
2022-08-04T12:43:10.454Z,28.92
2022-08-04T12:45:48.978Z,29.00
2022-08-04T12:48:21.585Z,28.96
2022-08-04T12:50:55.617Z,29.00
2022-08-04T12:53:50.880Z,29.00
2022-08-04T12:56:27.976Z,29.00
2022-08-04T12:59:06.410Z,29.00
2022-08-04T13:02:10.815Z,29.00
2022-08-04T13:04:42.502Z,29.00
2022-08-04T13:07:18.575Z,29.00
2022-08-04T13:09:47.804Z,29.00
2022-08-04T13:12:23.874Z,29.06
2022-08-04T13:15:10.851Z,29.00
2022-08-04T13:18:15.103Z,29.00
2022-08-04T13:20:44.797Z,29.00
2022-08-04T13:23:21.526Z,29.00
2022-08-04T13:26:44.159Z,29.00
2022-08-04T13:28:47.097Z,28.94
2022-08-04T13:31:20.021Z,28.92
2022-08-04T13:33:52.084Z,28.94
2022-08-04T13:36:26.267Z,28.90
2022-08-04T13:39:02.464Z,28.90
2022-08-04T13:41:31.491Z,28.90
2022-08-04T13:44:19.311Z,28.92
2022-08-04T13:46:55.750Z,29.00
2022-08-04T13:49:37.569Z,29.00
2022-08-04T13:52:11.501Z,28.96
2022-08-04T13:54:46.952Z,28.90
2022-08-04T13:57:31.641Z,28.90
2022-08-04T14:00:09.137Z,28.90
2022-08-04T14:02:46.690Z,28.90
2022-08-04T14:05:26.991Z,28.90
2022-08-04T14:08:05.539Z,28.90
2022-08-04T14:10:35.821Z,28.90
2022-08-04T14:13:06.324Z,28.90
2022-08-04T14:16:01.133Z,28.90
2022-08-04T14:18:33.870Z,28.94
2022-08-04T14:21:17.726Z,28.90
2022-08-04T14:23:58.018Z,28.90
2022-08-04T14:26:33.833Z,28.90
2022-08-04T14:29:26.402Z,28.90
2022-08-04T14:32:12.784Z,28.90
2022-08-04T14:34:46.228Z,28.84
2022-08-04T14:37:20.379Z,28.80
2022-08-04T14:40:19.329Z,28.90
2022-08-04T14:42:54.516Z,28.90
2022-08-04T14:45:37.189Z,28.80
2022-08-04T15:50:28.167Z,28.70
2022-08-04T15:52:57.263Z,28.72
2022-08-04T15:55:40.761Z,28.70
2022-08-04T15:58:13.781Z,28.70
2022-08-04T16:00:50.750Z,28.60
2022-08-04T16:03:58.830Z,28.60
2022-08-04T16:06:22.215Z,28.50
2022-08-04T16:08:57.242Z,28.50
2022-08-04T16:11:30.947Z,28.40
2022-08-04T16:13:59.683Z,28.40
2022-08-04T16:16:49.247Z,28.30
2022-08-04T16:19:51.776Z,28.30
2022-08-04T16:22:35.047Z,28.20
2022-08-04T16:25:03.094Z,28.20
2022-08-04T16:27:44.381Z,28.20
2022-08-04T16:30:15.092Z,28.14
2022-08-04T16:32:46.188Z,28.10
2022-08-04T16:35:28.614Z,28.10
2022-08-04T16:38:14.928Z,28.10
2022-08-04T16:40:46.307Z,28.08
2022-08-04T16:43:20.841Z,28.02
2022-08-04T16:46:01.125Z,28.00
2022-08-04T16:48:34.925Z,28.00
2022-08-04T16:51:14.545Z,28.00
2022-08-04T16:53:53.539Z,28.00
2022-08-04T16:56:35.585Z,27.90
2022-08-04T16:59:09.457Z,27.90
2022-08-04T17:01:48.199Z,27.90
2022-08-04T17:04:17.320Z,27.90
2022-08-04T17:06:46.762Z,27.90
2022-08-04T17:09:18.273Z,27.80
2022-08-04T17:11:48.401Z,27.80
2022-08-04T17:14:27.634Z,27.80
2022-08-04T17:17:00.618Z,27.80
2022-08-04T17:19:28.702Z,27.78
2022-08-04T17:22:10.913Z,27.70
2022-08-04T17:24:40.943Z,27.70
2022-08-04T17:28:09.789Z,27.70
2022-08-04T17:29:59.110Z,27.70
2022-08-04T17:32:27.214Z,27.60
2022-08-04T17:35:00.329Z,27.60
2022-08-04T17:37:37.781Z,27.60
2022-08-04T17:40:18.559Z,27.50
2022-08-04T17:44:02.868Z,27.50
2022-08-04T17:46:41.252Z,27.44
2022-08-04T17:49:17.668Z,27.40
2022-08-04T17:52:05.580Z,27.30
2022-08-04T17:54:40.547Z,27.30
2022-08-04T17:57:22.123Z,27.20
2022-08-04T17:59:58.798Z,27.20
2022-08-04T18:02:32.850Z,27.10
2022-08-04T18:05:11.678Z,27.10
2022-08-04T18:08:37.643Z,27.04
2022-08-04T18:13:29.468Z,26.90
2022-08-04T18:16:14.503Z,26.90
2022-08-04T18:19:15.571Z,26.80
2022-08-04T18:22:00.492Z,26.70
2022-08-04T18:24:36.024Z,26.70
2022-08-04T18:27:26.104Z,26.60
2022-08-04T18:30:33.933Z,26.60
2022-08-04T18:33:16.683Z,26.50
2022-08-04T18:36:35.339Z,26.50
2022-08-04T18:38:24.397Z,26.40
2022-08-04T18:40:54.571Z,26.30
2022-08-04T18:43:28.677Z,26.30
2022-08-04T18:45:59.543Z,26.24
2022-08-04T18:48:35.928Z,26.20
2022-08-04T18:51:10.747Z,26.18
2022-08-04T18:53:44.808Z,26.10
2022-08-04T18:56:29.685Z,26.00
2022-08-04T18:59:10.457Z,26.00
2022-08-04T19:02:13.016Z,25.90
2022-08-04T19:04:32.228Z,25.80
2022-08-04T19:07:28.932Z,25.80
2022-08-04T19:09:52.104Z,25.70
2022-08-04T19:12:26.980Z,25.60
2022-08-04T19:15:08.020Z,25.60
2022-08-04T19:17:53.411Z,25.50
2022-08-04T19:20:27.610Z,25.44
2022-08-04T19:24:28.761Z,25.40
2022-08-04T19:26:02.140Z,25.30
2022-08-04T19:28:35.972Z,25.22
2022-08-04T19:31:08.927Z,25.20
2022-08-04T19:33:59.106Z,25.10
2022-08-04T19:36:29.653Z,25.10
2022-08-04T19:39:03.900Z,25.00
2022-08-04T19:42:04.572Z,24.98
2022-08-04T19:44:25.080Z,24.90
2022-08-04T19:47:00.557Z,24.80
2022-08-04T19:50:03.814Z,24.78
2022-08-04T19:52:34.016Z,24.70
2022-08-04T19:55:09.905Z,24.60
2022-08-04T19:57:53.484Z,24.60
2022-08-04T20:00:33.146Z,24.50
2022-08-04T20:03:03.566Z,24.50
2022-08-04T20:05:53.311Z,24.44
2022-08-04T20:08:31.775Z,24.40
2022-08-04T20:11:00.153Z,24.40
2022-08-04T20:13:37.073Z,24.30
2022-08-04T20:16:29.557Z,24.20
2022-08-04T20:19:00.913Z,24.20
2022-08-04T20:21:54.036Z,24.10
2022-08-04T20:24:39.288Z,24.10
2022-08-04T20:27:22.068Z,24.04
2022-08-04T20:29:52.394Z,24.00
2022-08-04T20:32:26.354Z,23.98
2022-08-04T20:34:56.377Z,23.90
2022-08-04T20:37:55.552Z,23.90
2022-08-04T20:40:15.039Z,23.80
2022-08-04T20:42:44.870Z,23.80
2022-08-04T20:51:08.974Z,23.82
2022-08-04T20:53:52.805Z,23.80
2022-08-04T20:56:30.732Z,23.80
2022-08-04T20:59:00.430Z,23.70
2022-08-04T21:01:30.066Z,23.70
2022-08-04T21:04:27.888Z,23.66
2022-08-04T21:07:01.847Z,23.60
2022-08-04T21:12:27.672Z,23.50
2022-08-04T21:15:00.035Z,23.40
2022-08-04T21:17:59.454Z,23.40
2022-08-04T21:20:27.378Z,23.40
2022-08-04T21:22:59.624Z,23.34
2022-08-04T21:25:30.004Z,23.30
2022-08-04T21:27:58.893Z,23.30
2022-08-04T21:30:29.673Z,23.30
2022-08-04T21:32:57.247Z,23.30
2022-08-04T21:35:37.098Z,23.22
2022-08-04T21:38:17.282Z,23.20
2022-08-04T21:40:58.494Z,23.20
2022-08-04T21:43:42.422Z,23.20
2022-08-04T21:46:11.300Z,23.10
2022-08-04T21:48:42.523Z,23.10
2022-08-04T21:51:59.735Z,23.10
2022-08-04T21:54:26.513Z,23.10
2022-08-04T21:56:54.181Z,23.10
2022-08-04T21:59:30.567Z,23.02
2022-08-04T22:04:35.639Z,23.00
2022-08-04T22:07:05.288Z,22.90
2022-08-04T22:09:41.040Z,22.90
2022-08-04T22:12:11.677Z,22.90
2022-08-04T22:14:40.830Z,22.90
2022-08-04T22:17:13.578Z,22.80
2022-08-04T22:19:55.025Z,22.80
2022-08-04T22:22:27.213Z,22.80
2022-08-04T22:28:02.701Z,22.70
2022-08-04T22:30:37.058Z,22.70
2022-08-04T22:33:08.778Z,22.60
2022-08-04T22:35:48.906Z,22.60
2022-08-04T22:38:25.429Z,22.60
2022-08-04T22:41:05.319Z,22.50
2022-08-04T22:43:34.796Z,22.50
2022-08-04T22:46:20.227Z,22.50
2022-08-04T22:48:50.554Z,22.50
2022-08-04T22:51:19.660Z,22.50
2022-08-04T22:53:48.750Z,22.50
2022-08-04T22:56:37.176Z,22.50
2022-08-04T22:59:11.046Z,22.48
2022-08-04T23:02:00.386Z,22.40
2022-08-04T23:04:32.629Z,22.40
2022-08-04T23:07:09.169Z,22.40
2022-08-04T23:09:49.874Z,22.34
2022-08-04T23:12:26.052Z,22.30
2022-08-04T23:14:59.288Z,22.30
2022-08-04T23:17:28.567Z,22.22
2022-08-04T23:19:59.667Z,22.20
2022-08-04T23:22:41.627Z,22.20
2022-08-04T23:25:15.102Z,22.20
2022-08-04T23:27:51.522Z,22.20
2022-08-04T23:30:29.920Z,22.10
2022-08-04T23:32:58.518Z,22.10
2022-08-04T23:35:26.296Z,22.10
2022-08-04T23:37:56.884Z,22.10
2022-08-04T23:40:33.509Z,22.10
2022-08-04T23:43:17.134Z,22.00
2022-08-04T23:46:04.228Z,22.00
2022-08-04T23:48:38.972Z,22.00
2022-08-04T23:51:14.347Z,22.00
2022-08-04T23:54:02.578Z,22.00
2022-08-04T23:56:35.660Z,22.00
2022-08-04T23:59:05.743Z,22.00
